Historique des mesures à Cassis (13260), France
Quotidien Résumé Fevrier 23, 2017 Unités:  Métrique    US   Métrique/US
« Précédent (Jour)
Suivant (Jour) »
Quotidien Hebdomadaire Mensuel Annuel Période au choix
  Maximum: Minimum: Moyenne:
Température: TemperatureC °C 9.4 °C 12.1 °C
Point de rosée: DewpointC °C 6.6 °C 8.3 °C
Humidité: Humidity % 65 % 74 %
Vitesse du vent: 0 km/h 0 km/h 1 km/h
Rafales: 0 km/h - -
Vent:- - SE
Pression: PressurehPa hPa 1009.7 hPa -
Précipitations: 0.0 mm    
Historical Graphs
 
 
Mesures pour : Fevrier 23, 2017
Heure Temperature Point de rosée Pression Vent Vitesse du vent Rafales Humidité Pluie (par heure) Conditions
TemperatureC °C DewpointC °C PressurehPa hPa Calm     Humidity % HourlyPrecipMM mm SoftwareType W/m2
00:10 10.5 °C 7.0 °C 1015.5 hPa Calm     79 % 0.0 mm open2300-1.11 W/m2
01:11 10.3 °C 6.8 °C 1015.5 hPa Calm     79 % 0.0 mm open2300-1.11 W/m2
02:10 10.1 °C 6.8 °C 1014.8 hPa Calm     80 % 0.0 mm open2300-1.11 W/m2
03:11 9.8 °C 6.7 °C 1014.4 hPa Calm     81 % 0.0 mm open2300-1.11 W/m2
04:10 9.5 °C 6.6 °C 1013.8 hPa Calm     82 % 0.0 mm open2300-1.11 W/m2
05:11 9.9 °C 7.1 °C 1014.1 hPa Calm     83 % 0.0 mm open2300-1.11 W/m2
06:10 9.9 °C 7.3 °C 1013.8 hPa Calm     84 % 0.0 mm open2300-1.11 W/m2
07:11 9.4 °C 6.8 °C 1013.8 hPa Calm     84 % 0.0 mm open2300-1.11 W/m2
08:10 9.4 °C 6.8 °C 1014.1 hPa Calm     84 % 0.0 mm open2300-1.11 W/m2
09:11 11.3 °C 8.5 °C 1014.1 hPa Calm     83 % 0.0 mm open2300-1.11 W/m2
10:10 12.6 °C 9.4 °C 1014.4 hPa Calm     81 % 0.0 mm open2300-1.11 W/m2
11:11 14.1 °C 10.5 °C 1013.8 hPa SE 8 km/h 8 km/h 79 % 0.0 mm open2300-1.11 W/m2
12:10 15.8 °C 11.0 °C 1013.4 hPa SSE 8 km/h 8 km/h 73 % 0.0 mm open2300-1.11 W/m2
13:11 16.6 °C 10.2 °C 1013.1 hPa ESE 9.3 km/h 10.9 km/h 66 % 0.0 mm open2300-1.11 W/m2
14:10 16.5 °C 9.9 °C 1012.1 hPa Calm   6.4 km/h 65 % 0.0 mm open2300-1.11 W/m2
15:11 16.3 °C 9.9 °C 1011.7 hPa Calm   8 km/h 66 % 0.0 mm open2300-1.11 W/m2
16:10 15.7 °C 9.6 °C 1011.4 hPa Calm   3.4 km/h 67 % 0.0 mm open2300-1.11 W/m2
17:11 15.1 °C 9.7 °C 1010.7 hPa Calm   2.3 km/h 70 % 0.0 mm open2300-1.11 W/m2
18:10 14.3 °C 9.5 °C 1010.4 hPa Calm     73 % 0.0 mm open2300-1.11 W/m2
19:11 13.8 °C 9.6 °C 1010.4 hPa Calm   2.3 km/h 76 % 0.0 mm open2300-1.11 W/m2
20:10 13.6 °C 9.6 °C 1010.4 hPa Calm   2.3 km/h 77 % 0.0 mm open2300-1.11 W/m2
21:11 13.4 °C 9.4 °C 1010.4 hPa Calm     77 % 0.0 mm open2300-1.11 W/m2
22:10 13.2 °C 9.2 °C 1010.0 hPa Calm     77 % 0.0 mm open2300-1.11 W/m2
23:11 12.4 °C 8.4 °C 1009.7 hPa Calm     77 % 0.0 mm open2300-1.11 W/m2
Observations météo à CASSIS
WU-History script by Weather Underground - 1 mb